sensor_id;sensor_type;location;lat;lon;timestamp;P1;durP1;ratioP1;P2;durP2;ratioP2
48881;SDS011;57063;51.406;-2.402;2022-09-16T00:01:09;1.50;;;0.45;;
48881;SDS011;57063;51.406;-2.402;2022-09-16T00:03:37;1.75;;;0.47;;
48881;SDS011;57063;51.406;-2.402;2022-09-16T00:06:03;5.00;;;0.70;;
48881;SDS011;57063;51.406;-2.402;2022-09-16T00:08:28;3.28;;;0.57;;
48881;SDS011;57063;51.406;-2.402;2022-09-16T00:10:58;5.18;;;0.95;;
48881;SDS011;57063;51.406;-2.402;2022-09-16T00:13:24;2.63;;;0.68;;
48881;SDS011;57063;51.406;-2.402;2022-09-16T00:15:49;3.75;;;0.90;;
48881;SDS011;57063;51.406;-2.402;2022-09-16T00:18:15;2.53;;;1.00;;
48881;SDS011;57063;51.406;-2.402;2022-09-16T00:20:44;3.58;;;1.08;;
48881;SDS011;57063;51.406;-2.402;2022-09-16T00:23:16;2.70;;;0.70;;
48881;SDS011;57063;51.406;-2.402;2022-09-16T00:25:43;4.32;;;0.75;;
48881;SDS011;57063;51.406;-2.402;2022-09-16T00:28:08;6.13;;;0.82;;
48881;SDS011;57063;51.406;-2.402;2022-09-16T00:30:34;3.47;;;0.70;;
48881;SDS011;57063;51.406;-2.402;2022-09-16T00:33:00;6.65;;;1.42;;
48881;SDS011;57063;51.406;-2.402;2022-09-16T00:35:25;2.13;;;0.57;;
48881;SDS011;57063;51.406;-2.402;2022-09-16T00:37:51;3.53;;;0.82;;
48881;SDS011;57063;51.406;-2.402;2022-09-16T00:40:16;3.58;;;0.90;;
48881;SDS011;57063;51.406;-2.402;2022-09-16T00:42:41;2.63;;;1.08;;
48881;SDS011;57063;51.406;-2.402;2022-09-16T00:45:20;6.60;;;0.90;;
48881;SDS011;57063;51.406;-2.402;2022-09-16T00:50:16;3.53;;;1.13;;
48881;SDS011;57063;51.406;-2.402;2022-09-16T00:52:52;7.75;;;1.00;;
48881;SDS011;57063;51.406;-2.402;2022-09-16T00:55:21;2.92;;;0.80;;
48881;SDS011;57063;51.406;-2.402;2022-09-16T00:57:49;5.22;;;0.80;;
48881;SDS011;57063;51.406;-2.402;2022-09-16T01:00:18;4.50;;;1.02;;
48881;SDS011;57063;51.406;-2.402;2022-09-16T01:02:44;1.67;;;0.50;;
48881;SDS011;57063;51.406;-2.402;2022-09-16T01:05:14;1.58;;;0.52;;
48881;SDS011;57063;51.406;-2.402;2022-09-16T01:07:45;4.28;;;0.70;;
48881;SDS011;57063;51.406;-2.402;2022-09-16T01:10:12;5.05;;;1.02;;
48881;SDS011;57063;51.406;-2.402;2022-09-16T01:12:40;2.97;;;0.77;;
48881;SDS011;57063;51.406;-2.402;2022-09-16T01:15:10;4.28;;;0.80;;
48881;SDS011;57063;51.406;-2.402;2022-09-16T01:17:50;1.77;;;0.70;;
48881;SDS011;57063;51.406;-2.402;2022-09-16T01:29:25;1.85;;;0.60;;
48881;SDS011;57063;51.406;-2.402;2022-09-16T01:47:35;4.32;;;0.90;;
48881;SDS011;57063;51.406;-2.402;2022-09-16T01:50:23;2.90;;;0.80;;
48881;SDS011;57063;51.406;-2.402;2022-09-16T01:55:35;1.48;;;0.60;;
48881;SDS011;57063;51.406;-2.402;2022-09-16T02:00:47;4.00;;;0.85;;
48881;SDS011;57063;51.406;-2.402;2022-09-16T02:03:21;2.65;;;0.80;;
48881;SDS011;57063;51.406;-2.402;2022-09-16T02:05:59;4.40;;;1.50;;
48881;SDS011;57063;51.406;-2.402;2022-09-16T02:08:33;6.07;;;1.00;;
48881;SDS011;57063;51.406;-2.402;2022-09-16T02:11:05;3.50;;;0.80;;
48881;SDS011;57063;51.406;-2.402;2022-09-16T02:13:34;2.28;;;0.60;;
48881;SDS011;57063;51.406;-2.402;2022-09-16T02:16:04;2.38;;;0.70;;
48881;SDS011;57063;51.406;-2.402;2022-09-16T02:18:38;1.08;;;0.40;;
48881;SDS011;57063;51.406;-2.402;2022-09-16T02:21:06;3.45;;;0.75;;
48881;SDS011;57063;51.406;-2.402;2022-09-16T02:23:39;3.00;;;0.63;;
48881;SDS011;57063;51.406;-2.402;2022-09-16T02:26:10;1.80;;;0.50;;
48881;SDS011;57063;51.406;-2.402;2022-09-16T02:28:43;2.45;;;1.17;;
48881;SDS011;57063;51.406;-2.402;2022-09-16T02:31:11;2.65;;;0.60;;
48881;SDS011;57063;51.406;-2.402;2022-09-16T02:33:50;4.43;;;0.88;;
48881;SDS011;57063;51.406;-2.402;2022-09-16T02:36:20;2.78;;;0.85;;
48881;SDS011;57063;51.406;-2.402;2022-09-16T02:38:50;3.05;;;0.82;;
48881;SDS011;57063;51.406;-2.402;2022-09-16T02:41:21;3.92;;;1.13;;
48881;SDS011;57063;51.406;-2.402;2022-09-16T02:43:46;1.77;;;0.60;;
48881;SDS011;57063;51.406;-2.402;2022-09-16T02:48:52;2.83;;;0.90;;
48881;SDS011;57063;51.406;-2.402;2022-09-16T02:51:57;1.73;;;0.50;;
48881;SDS011;57063;51.406;-2.402;2022-09-16T02:54:34;1.90;;;0.60;;
48881;SDS011;57063;51.406;-2.402;2022-09-16T02:57:05;2.28;;;0.63;;
48881;SDS011;57063;51.406;-2.402;2022-09-16T02:59:33;2.67;;;0.60;;
48881;SDS011;57063;51.406;-2.402;2022-09-16T03:01:58;3.45;;;0.93;;
48881;SDS011;57063;51.406;-2.402;2022-09-16T03:04:25;3.40;;;1.00;;
48881;SDS011;57063;51.406;-2.402;2022-09-16T03:06:50;4.68;;;0.77;;
48881;SDS011;57063;51.406;-2.402;2022-09-16T03:09:16;1.65;;;0.55;;
48881;SDS011;57063;51.406;-2.402;2022-09-16T03:11:59;2.35;;;0.95;;
48881;SDS011;57063;51.406;-2.402;2022-09-16T03:31:46;2.53;;;0.47;;
48881;SDS011;57063;51.406;-2.402;2022-09-16T03:34:29;3.00;;;0.70;;
48881;SDS011;57063;51.406;-2.402;2022-09-16T03:37:00;3.05;;;0.75;;
48881;SDS011;57063;51.406;-2.402;2022-09-16T03:39:30;2.33;;;0.40;;
48881;SDS011;57063;51.406;-2.402;2022-09-16T03:42:03;3.03;;;0.80;;
48881;SDS011;57063;51.406;-2.402;2022-09-16T03:44:36;2.22;;;0.57;;
48881;SDS011;57063;51.406;-2.402;2022-09-16T03:47:03;1.40;;;0.55;;
48881;SDS011;57063;51.406;-2.402;2022-09-16T03:49:29;2.35;;;0.60;;
48881;SDS011;57063;51.406;-2.402;2022-09-16T03:51:56;2.10;;;0.50;;
48881;SDS011;57063;51.406;-2.402;2022-09-16T03:54:22;1.42;;;0.70;;
48881;SDS011;57063;51.406;-2.402;2022-09-16T03:56:48;2.30;;;0.50;;
48881;SDS011;57063;51.406;-2.402;2022-09-16T03:59:13;0.80;;;0.40;;
48881;SDS011;57063;51.406;-2.402;2022-09-16T04:01:38;5.95;;;0.68;;
48881;SDS011;57063;51.406;-2.402;2022-09-16T04:04:04;1.90;;;0.50;;
48881;SDS011;57063;51.406;-2.402;2022-09-16T04:06:29;3.30;;;0.70;;
48881;SDS011;57063;51.406;-2.402;2022-09-16T04:08:54;0.38;;;0.35;;
48881;SDS011;57063;51.406;-2.402;2022-09-16T04:11:24;2.28;;;0.40;;
48881;SDS011;57063;51.406;-2.402;2022-09-16T04:13:50;2.55;;;0.55;;
48881;SDS011;57063;51.406;-2.402;2022-09-16T04:16:19;3.97;;;0.50;;
48881;SDS011;57063;51.406;-2.402;2022-09-16T04:18:45;2.30;;;1.20;;
48881;SDS011;57063;51.406;-2.402;2022-09-16T04:21:10;1.75;;;0.55;;
48881;SDS011;57063;51.406;-2.402;2022-09-16T04:23:36;1.30;;;0.40;;
48881;SDS011;57063;51.406;-2.402;2022-09-16T04:26:01;1.92;;;0.50;;
48881;SDS011;57063;51.406;-2.402;2022-09-16T04:28:28;1.02;;;0.30;;
48881;SDS011;57063;51.406;-2.402;2022-09-16T04:31:00;1.58;;;0.50;;
48881;SDS011;57063;51.406;-2.402;2022-09-16T04:33:31;3.55;;;0.80;;
48881;SDS011;57063;51.406;-2.402;2022-09-16T04:36:08;2.97;;;0.60;;
48881;SDS011;57063;51.406;-2.402;2022-09-16T04:38:39;1.35;;;0.40;;
48881;SDS011;57063;51.406;-2.402;2022-09-16T04:41:10;4.40;;;0.40;;
48881;SDS011;57063;51.406;-2.402;2022-09-16T04:43:37;1.13;;;0.50;;
48881;SDS011;57063;51.406;-2.402;2022-09-16T04:46:03;0.80;;;0.43;;
48881;SDS011;57063;51.406;-2.402;2022-09-16T04:48:29;2.15;;;0.47;;
48881;SDS011;57063;51.406;-2.402;2022-09-16T04:51:00;1.65;;;0.50;;
48881;SDS011;57063;51.406;-2.402;2022-09-16T04:53:30;0.70;;;0.65;;
48881;SDS011;57063;51.406;-2.402;2022-09-16T04:56:12;0.68;;;0.50;;
48881;SDS011;57063;51.406;-2.402;2022-09-16T04:58:51;3.00;;;0.90;;
48881;SDS011;57063;51.406;-2.402;2022-09-16T05:01:19;2.45;;;0.73;;
48881;SDS011;57063;51.406;-2.402;2022-09-16T05:03:53;3.22;;;0.80;;
48881;SDS011;57063;51.406;-2.402;2022-09-16T05:06:20;2.20;;;0.52;;
48881;SDS011;57063;51.406;-2.402;2022-09-16T05:08:48;1.25;;;0.55;;
48881;SDS011;57063;51.406;-2.402;2022-09-16T05:11:18;1.77;;;0.70;;
48881;SDS011;57063;51.406;-2.402;2022-09-16T05:13:46;1.80;;;0.50;;
48881;SDS011;57063;51.406;-2.402;2022-09-16T05:16:16;1.30;;;0.45;;
48881;SDS011;57063;51.406;-2.402;2022-09-16T05:18:44;4.13;;;1.30;;
48881;SDS011;57063;51.406;-2.402;2022-09-16T05:21:12;1.23;;;0.50;;
48881;SDS011;57063;51.406;-2.402;2022-09-16T05:23:39;2.53;;;0.60;;
48881;SDS011;57063;51.406;-2.402;2022-09-16T05:26:23;4.72;;;0.60;;
48881;SDS011;57063;51.406;-2.402;2022-09-16T05:28:50;1.17;;;0.52;;
48881;SDS011;57063;51.406;-2.402;2022-09-16T05:31:17;4.20;;;0.60;;
48881;SDS011;57063;51.406;-2.402;2022-09-16T05:33:44;1.30;;;0.68;;
48881;SDS011;57063;51.406;-2.402;2022-09-16T05:36:18;1.98;;;0.65;;
48881;SDS011;57063;51.406;-2.402;2022-09-16T05:38:44;2.47;;;0.80;;
48881;SDS011;57063;51.406;-2.402;2022-09-16T05:41:10;1.73;;;0.50;;
48881;SDS011;57063;51.406;-2.402;2022-09-16T05:43:36;2.35;;;0.60;;
48881;SDS011;57063;51.406;-2.402;2022-09-16T05:46:03;2.08;;;0.57;;
48881;SDS011;57063;51.406;-2.402;2022-09-16T05:48:29;2.38;;;0.70;;
48881;SDS011;57063;51.406;-2.402;2022-09-16T05:51:00;4.32;;;0.93;;
48881;SDS011;57063;51.406;-2.402;2022-09-16T05:53:27;3.00;;;0.90;;
48881;SDS011;57063;51.406;-2.402;2022-09-16T05:58:26;3.72;;;0.90;;
48881;SDS011;57063;51.406;-2.402;2022-09-16T06:03:31;4.60;;;0.60;;
48881;SDS011;57063;51.406;-2.402;2022-09-16T06:05:59;4.05;;;0.63;;
48881;SDS011;57063;51.406;-2.402;2022-09-16T06:08:25;4.50;;;0.80;;
48881;SDS011;57063;51.406;-2.402;2022-09-16T06:10:51;3.90;;;0.80;;
48881;SDS011;57063;51.406;-2.402;2022-09-16T06:13:17;1.35;;;0.60;;
48881;SDS011;57063;51.406;-2.402;2022-09-16T06:15:49;3.38;;;0.77;;
48881;SDS011;57063;51.406;-2.402;2022-09-16T06:18:18;3.15;;;1.33;;
48881;SDS011;57063;51.406;-2.402;2022-09-16T06:20:44;5.85;;;1.30;;
48881;SDS011;57063;51.406;-2.402;2022-09-16T06:23:10;4.45;;;0.70;;
48881;SDS011;57063;51.406;-2.402;2022-09-16T06:25:35;3.90;;;0.95;;
48881;SDS011;57063;51.406;-2.402;2022-09-16T06:28:01;1.73;;;0.80;;
48881;SDS011;57063;51.406;-2.402;2022-09-16T06:30:27;1.55;;;0.60;;
48881;SDS011;57063;51.406;-2.402;2022-09-16T06:32:53;5.72;;;1.42;;
48881;SDS011;57063;51.406;-2.402;2022-09-16T06:35:18;2.50;;;1.00;;
48881;SDS011;57063;51.406;-2.402;2022-09-16T06:37:43;2.22;;;0.90;;
48881;SDS011;57063;51.406;-2.402;2022-09-16T06:40:09;4.63;;;0.60;;
48881;SDS011;57063;51.406;-2.402;2022-09-16T06:42:34;1.95;;;0.80;;
48881;SDS011;57063;51.406;-2.402;2022-09-16T06:45:00;9.25;;;1.33;;
48881;SDS011;57063;51.406;-2.402;2022-09-16T06:47:28;3.35;;;1.00;;
48881;SDS011;57063;51.406;-2.402;2022-09-16T06:49:55;4.20;;;1.02;;
48881;SDS011;57063;51.406;-2.402;2022-09-16T06:52:20;3.45;;;0.70;;
48881;SDS011;57063;51.406;-2.402;2022-09-16T06:54:46;2.53;;;0.80;;
48881;SDS011;57063;51.406;-2.402;2022-09-16T06:57:12;3.40;;;0.98;;
48881;SDS011;57063;51.406;-2.402;2022-09-16T06:59:37;5.53;;;1.17;;
48881;SDS011;57063;51.406;-2.402;2022-09-16T07:02:02;8.27;;;1.10;;
48881;SDS011;57063;51.406;-2.402;2022-09-16T07:04:28;1.30;;;0.60;;
48881;SDS011;57063;51.406;-2.402;2022-09-16T07:06:53;6.15;;;0.90;;
48881;SDS011;57063;51.406;-2.402;2022-09-16T07:09:21;6.47;;;1.00;;
48881;SDS011;57063;51.406;-2.402;2022-09-16T07:11:48;3.80;;;0.98;;
48881;SDS011;57063;51.406;-2.402;2022-09-16T07:14:13;2.33;;;1.02;;
48881;SDS011;57063;51.406;-2.402;2022-09-16T07:16:38;3.33;;;0.93;;
48881;SDS011;57063;51.406;-2.402;2022-09-16T07:19:04;3.75;;;0.70;;
48881;SDS011;57063;51.406;-2.402;2022-09-16T07:21:30;2.42;;;0.55;;
48881;SDS011;57063;51.406;-2.402;2022-09-16T07:23:57;5.10;;;1.00;;
48881;SDS011;57063;51.406;-2.402;2022-09-16T07:26:25;2.38;;;0.80;;
48881;SDS011;57063;51.406;-2.402;2022-09-16T07:28:52;3.55;;;1.10;;
48881;SDS011;57063;51.406;-2.402;2022-09-16T07:31:22;4.78;;;0.93;;
48881;SDS011;57063;51.406;-2.402;2022-09-16T07:33:50;4.65;;;0.85;;
48881;SDS011;57063;51.406;-2.402;2022-09-16T07:36:20;3.78;;;0.80;;
48881;SDS011;57063;51.406;-2.402;2022-09-16T07:38:51;3.80;;;0.57;;
48881;SDS011;57063;51.406;-2.402;2022-09-16T07:41:23;2.72;;;0.60;;
48881;SDS011;57063;51.406;-2.402;2022-09-16T07:43:51;7.95;;;1.05;;
48881;SDS011;57063;51.406;-2.402;2022-09-16T07:46:18;4.40;;;0.80;;
48881;SDS011;57063;51.406;-2.402;2022-09-16T07:48:44;3.25;;;0.80;;
48881;SDS011;57063;51.406;-2.402;2022-09-16T07:51:15;5.03;;;1.20;;
48881;SDS011;57063;51.406;-2.402;2022-09-16T07:53:42;6.03;;;0.73;;
48881;SDS011;57063;51.406;-2.402;2022-09-16T07:56:15;5.53;;;0.70;;
48881;SDS011;57063;51.406;-2.402;2022-09-16T07:58:42;5.60;;;0.95;;
48881;SDS011;57063;51.406;-2.402;2022-09-16T08:03:36;6.95;;;1.02;;
48881;SDS011;57063;51.406;-2.402;2022-09-16T12:08:53;3.42;;;0.32;;
48881;SDS011;57063;51.406;-2.402;2022-09-16T12:11:23;2.60;;;0.10;;
48881;SDS011;57063;51.406;-2.402;2022-09-16T12:14:57;0.55;;;0.10;;
48881;SDS011;57063;51.406;-2.402;2022-09-16T12:17:20;0.88;;;0.20;;
48881;SDS011;57063;51.406;-2.402;2022-09-16T12:19:57;2.70;;;0.35;;
48881;SDS011;57063;51.406;-2.402;2022-09-16T12:24:55;1.15;;;0.40;;
48881;SDS011;57063;51.406;-2.402;2022-09-16T12:27:31;3.15;;;0.20;;
48881;SDS011;57063;51.406;-2.402;2022-09-16T12:30:15;1.27;;;0.20;;
48881;SDS011;57063;51.406;-2.402;2022-09-16T12:38:26;2.60;;;0.43;;
48881;SDS011;57063;51.406;-2.402;2022-09-16T13:03:20;0.65;;;0.30;;
48881;SDS011;57063;51.406;-2.402;2022-09-16T13:05:51;3.28;;;0.40;;
48881;SDS011;57063;51.406;-2.402;2022-09-16T13:08:24;1.05;;;0.20;;
48881;SDS011;57063;51.406;-2.402;2022-09-16T13:13:33;2.20;;;0.20;;
48881;SDS011;57063;51.406;-2.402;2022-09-16T13:16:04;1.95;;;0.10;;
48881;SDS011;57063;51.406;-2.402;2022-09-16T13:18:38;3.13;;;0.20;;
48881;SDS011;57063;51.406;-2.402;2022-09-16T13:21:13;0.47;;;0.10;;
48881;SDS011;57063;51.406;-2.402;2022-09-16T13:23:44;1.00;;;0.10;;
48881;SDS011;57063;51.406;-2.402;2022-09-16T13:26:12;4.15;;;0.60;;
48881;SDS011;57063;51.406;-2.402;2022-09-16T13:28:39;3.00;;;0.20;;
48881;SDS011;57063;51.406;-2.402;2022-09-16T13:34:14;0.30;;;0.10;;
48881;SDS011;57063;51.406;-2.402;2022-09-16T13:36:39;0.80;;;0.30;;
48881;SDS011;57063;51.406;-2.402;2022-09-16T13:39:05;1.63;;;0.32;;
48881;SDS011;57063;51.406;-2.402;2022-09-16T13:41:39;1.27;;;0.30;;
48881;SDS011;57063;51.406;-2.402;2022-09-16T13:49:34;3.33;;;0.40;;
48881;SDS011;57063;51.406;-2.402;2022-09-16T13:54:46;0.32;;;0.28;;
48881;SDS011;57063;51.406;-2.402;2022-09-16T13:57:31;3.55;;;0.50;;
48881;SDS011;57063;51.406;-2.402;2022-09-16T14:11:33;2.38;;;0.28;;
48881;SDS011;57063;51.406;-2.402;2022-09-16T14:14:22;4.65;;;0.45;;
48881;SDS011;57063;51.406;-2.402;2022-09-16T14:16:50;3.50;;;0.52;;
48881;SDS011;57063;51.406;-2.402;2022-09-16T14:19:22;1.98;;;0.63;;
48881;SDS011;57063;51.406;-2.402;2022-09-16T14:22:05;2.15;;;0.47;;
48881;SDS011;57063;51.406;-2.402;2022-09-16T14:24:38;1.58;;;0.32;;
48881;SDS011;57063;51.406;-2.402;2022-09-16T14:27:16;4.38;;;0.20;;
48881;SDS011;57063;51.406;-2.402;2022-09-16T14:29:56;2.30;;;0.20;;
48881;SDS011;57063;51.406;-2.402;2022-09-16T14:32:24;0.35;;;0.20;;
48881;SDS011;57063;51.406;-2.402;2022-09-16T14:34:54;3.57;;;0.47;;
48881;SDS011;57063;51.406;-2.402;2022-09-16T14:37:23;0.60;;;0.20;;
48881;SDS011;57063;51.406;-2.402;2022-09-16T14:39:51;1.27;;;0.30;;
48881;SDS011;57063;51.406;-2.402;2022-09-16T14:42:19;0.40;;;0.20;;
48881;SDS011;57063;51.406;-2.402;2022-09-16T14:44:51;0.30;;;0.00;;
48881;SDS011;57063;51.406;-2.402;2022-09-16T14:49:44;0.43;;;0.10;;
48881;SDS011;57063;51.406;-2.402;2022-09-16T14:52:18;0.63;;;0.20;;
48881;SDS011;57063;51.406;-2.402;2022-09-16T14:54:45;0.80;;;0.15;;
48881;SDS011;57063;51.406;-2.402;2022-09-16T14:57:15;0.77;;;0.20;;
48881;SDS011;57063;51.406;-2.402;2022-09-16T14:59:46;1.85;;;0.20;;
48881;SDS011;57063;51.406;-2.402;2022-09-16T15:02:16;0.63;;;0.20;;
48881;SDS011;57063;51.406;-2.402;2022-09-16T15:04:49;1.30;;;0.30;;
48881;SDS011;57063;51.406;-2.402;2022-09-16T15:07:22;0.40;;;0.10;;
48881;SDS011;57063;51.406;-2.402;2022-09-16T15:09:53;0.70;;;0.15;;
48881;SDS011;57063;51.406;-2.402;2022-09-16T15:12:34;0.35;;;0.20;;
48881;SDS011;57063;51.406;-2.402;2022-09-16T15:15:04;0.40;;;0.22;;
48881;SDS011;57063;51.406;-2.402;2022-09-16T15:17:39;0.57;;;0.20;;
48881;SDS011;57063;51.406;-2.402;2022-09-16T15:20:05;1.45;;;0.10;;
48881;SDS011;57063;51.406;-2.402;2022-09-16T15:22:30;0.80;;;0.10;;
48881;SDS011;57063;51.406;-2.402;2022-09-16T15:24:56;0.88;;;0.32;;
48881;SDS011;57063;51.406;-2.402;2022-09-16T15:27:27;0.50;;;0.20;;
48881;SDS011;57063;51.406;-2.402;2022-09-16T15:29:57;2.53;;;0.57;;
48881;SDS011;57063;51.406;-2.402;2022-09-16T15:32:25;5.07;;;0.20;;
48881;SDS011;57063;51.406;-2.402;2022-09-16T15:37:45;2.45;;;0.73;;
48881;SDS011;57063;51.406;-2.402;2022-09-16T15:42:41;1.70;;;0.20;;
48881;SDS011;57063;51.406;-2.402;2022-09-16T15:45:12;0.22;;;0.20;;
48881;SDS011;57063;51.406;-2.402;2022-09-16T15:47:53;0.38;;;0.10;;
48881;SDS011;57063;51.406;-2.402;2022-09-16T15:50:22;0.70;;;0.20;;
48881;SDS011;57063;51.406;-2.402;2022-09-16T15:52:52;1.02;;;0.20;;
48881;SDS011;57063;51.406;-2.402;2022-09-16T16:03:21;8.70;;;0.38;;
48881;SDS011;57063;51.406;-2.402;2022-09-16T16:05:50;2.05;;;0.30;;
48881;SDS011;57063;51.406;-2.402;2022-09-16T16:11:04;0.68;;;0.20;;
48881;SDS011;57063;51.406;-2.402;2022-09-16T16:13:32;0.47;;;0.25;;
48881;SDS011;57063;51.406;-2.402;2022-09-16T16:15:57;2.20;;;0.15;;
48881;SDS011;57063;51.406;-2.402;2022-09-16T16:18:23;0.70;;;0.17;;
48881;SDS011;57063;51.406;-2.402;2022-09-16T16:20:48;0.85;;;0.10;;
48881;SDS011;57063;51.406;-2.402;2022-09-16T16:23:13;0.82;;;0.30;;
48881;SDS011;57063;51.406;-2.402;2022-09-16T16:25:39;0.90;;;0.32;;
48881;SDS011;57063;51.406;-2.402;2022-09-16T16:28:04;0.30;;;0.20;;
48881;SDS011;57063;51.406;-2.402;2022-09-16T16:30:29;0.40;;;0.20;;
48881;SDS011;57063;51.406;-2.402;2022-09-16T16:32:55;0.20;;;0.10;;
48881;SDS011;57063;51.406;-2.402;2022-09-16T16:35:20;0.22;;;0.20;;
48881;SDS011;57063;51.406;-2.402;2022-09-16T16:37:46;0.55;;;0.10;;
48881;SDS011;57063;51.406;-2.402;2022-09-16T16:40:11;0.30;;;0.20;;
48881;SDS011;57063;51.406;-2.402;2022-09-16T16:42:37;1.20;;;0.10;;
48881;SDS011;57063;51.406;-2.402;2022-09-16T16:45:04;3.80;;;1.10;;
48881;SDS011;57063;51.406;-2.402;2022-09-16T16:47:30;0.28;;;0.10;;
48881;SDS011;57063;51.406;-2.402;2022-09-16T16:49:55;1.15;;;0.22;;
48881;SDS011;57063;51.406;-2.402;2022-09-16T16:52:21;0.28;;;0.10;;
48881;SDS011;57063;51.406;-2.402;2022-09-16T16:54:46;0.95;;;0.00;;
48881;SDS011;57063;51.406;-2.402;2022-09-16T16:57:12;0.40;;;0.10;;
48881;SDS011;57063;51.406;-2.402;2022-09-16T16:59:37;0.95;;;0.15;;
48881;SDS011;57063;51.406;-2.402;2022-09-16T17:02:03;3.65;;;0.30;;
48881;SDS011;57063;51.406;-2.402;2022-09-16T17:04:29;0.28;;;0.10;;
48881;SDS011;57063;51.406;-2.402;2022-09-16T17:06:54;2.83;;;0.20;;
48881;SDS011;57063;51.406;-2.402;2022-09-16T17:09:20;7.82;;;0.52;;
48881;SDS011;57063;51.406;-2.402;2022-09-16T17:11:52;2.22;;;0.20;;
48881;SDS011;57063;51.406;-2.402;2022-09-16T17:14:20;0.60;;;0.15;;
48881;SDS011;57063;51.406;-2.402;2022-09-16T17:16:46;0.55;;;0.10;;
48881;SDS011;57063;51.406;-2.402;2022-09-16T17:19:12;0.43;;;0.10;;
48881;SDS011;57063;51.406;-2.402;2022-09-16T17:21:38;0.95;;;0.20;;
48881;SDS011;57063;51.406;-2.402;2022-09-16T17:24:05;0.38;;;0.20;;
48881;SDS011;57063;51.406;-2.402;2022-09-16T17:26:30;2.60;;;0.25;;
48881;SDS011;57063;51.406;-2.402;2022-09-16T17:28:57;1.02;;;0.30;;
48881;SDS011;57063;51.406;-2.402;2022-09-16T17:31:23;3.10;;;0.20;;
48881;SDS011;57063;51.406;-2.402;2022-09-16T17:33:57;0.70;;;0.10;;
48881;SDS011;57063;51.406;-2.402;2022-09-16T17:36:29;1.33;;;0.17;;
48881;SDS011;57063;51.406;-2.402;2022-09-16T17:38:56;0.85;;;0.30;;
48881;SDS011;57063;51.406;-2.402;2022-09-16T17:41:28;0.22;;;0.10;;
48881;SDS011;57063;51.406;-2.402;2022-09-16T17:43:54;2.28;;;0.28;;
48881;SDS011;57063;51.406;-2.402;2022-09-16T17:46:21;1.08;;;0.30;;
48881;SDS011;57063;51.406;-2.402;2022-09-16T17:48:48;0.90;;;0.30;;
48881;SDS011;57063;51.406;-2.402;2022-09-16T17:51:14;0.17;;;0.10;;
48881;SDS011;57063;51.406;-2.402;2022-09-16T17:53:42;0.73;;;0.15;;
48881;SDS011;57063;51.406;-2.402;2022-09-16T17:56:09;1.05;;;0.10;;
48881;SDS011;57063;51.406;-2.402;2022-09-16T17:58:37;1.38;;;0.20;;
48881;SDS011;57063;51.406;-2.402;2022-09-16T18:01:05;0.20;;;0.10;;
48881;SDS011;57063;51.406;-2.402;2022-09-16T18:03:38;1.17;;;0.20;;
48881;SDS011;57063;51.406;-2.402;2022-09-16T18:06:06;1.15;;;0.10;;
48881;SDS011;57063;51.406;-2.402;2022-09-16T18:08:37;0.55;;;0.10;;
48881;SDS011;57063;51.406;-2.402;2022-09-16T18:11:04;1.98;;;0.15;;
48881;SDS011;57063;51.406;-2.402;2022-09-16T18:13:31;0.22;;;0.15;;
48881;SDS011;57063;51.406;-2.402;2022-09-16T18:16:06;1.52;;;0.60;;
48881;SDS011;57063;51.406;-2.402;2022-09-16T18:18:38;0.98;;;0.20;;
48881;SDS011;57063;51.406;-2.402;2022-09-16T18:21:05;0.50;;;0.43;;
48881;SDS011;57063;51.406;-2.402;2022-09-16T18:23:32;2.17;;;0.28;;
48881;SDS011;57063;51.406;-2.402;2022-09-16T18:26:04;0.95;;;0.28;;
48881;SDS011;57063;51.406;-2.402;2022-09-16T18:28:39;0.30;;;0.17;;
48881;SDS011;57063;51.406;-2.402;2022-09-16T18:31:12;1.65;;;0.20;;
48881;SDS011;57063;51.406;-2.402;2022-09-16T18:33:40;0.47;;;0.10;;
48881;SDS011;57063;51.406;-2.402;2022-09-16T18:36:06;2.30;;;0.43;;
48881;SDS011;57063;51.406;-2.402;2022-09-16T18:38:34;0.13;;;0.08;;
48881;SDS011;57063;51.406;-2.402;2022-09-16T18:41:10;1.92;;;0.20;;
48881;SDS011;57063;51.406;-2.402;2022-09-16T18:43:41;0.32;;;0.17;;
48881;SDS011;57063;51.406;-2.402;2022-09-16T18:46:12;0.22;;;0.15;;
48881;SDS011;57063;51.406;-2.402;2022-09-16T18:48:40;0.82;;;0.40;;
48881;SDS011;57063;51.406;-2.402;2022-09-16T18:54:00;0.93;;;0.38;;
48881;SDS011;57063;51.406;-2.402;2022-09-16T18:56:28;0.70;;;0.38;;
48881;SDS011;57063;51.406;-2.402;2022-09-16T18:59:00;4.93;;;0.28;;
48881;SDS011;57063;51.406;-2.402;2022-09-16T19:01:31;1.42;;;0.32;;
48881;SDS011;57063;51.406;-2.402;2022-09-16T19:03:59;0.40;;;0.17;;
48881;SDS011;57063;51.406;-2.402;2022-09-16T19:06:27;0.45;;;0.20;;
48881;SDS011;57063;51.406;-2.402;2022-09-16T19:08:54;3.10;;;0.50;;
48881;SDS011;57063;51.406;-2.402;2022-09-16T19:11:20;0.85;;;0.10;;
48881;SDS011;57063;51.406;-2.402;2022-09-16T19:13:46;1.05;;;0.28;;
48881;SDS011;57063;51.406;-2.402;2022-09-16T19:16:11;1.55;;;0.30;;
48881;SDS011;57063;51.406;-2.402;2022-09-16T19:18:38;0.95;;;0.25;;
48881;SDS011;57063;51.406;-2.402;2022-09-16T19:21:04;1.83;;;0.50;;
48881;SDS011;57063;51.406;-2.402;2022-09-16T19:23:30;2.10;;;0.20;;
48881;SDS011;57063;51.406;-2.402;2022-09-16T19:25:59;1.08;;;0.40;;
48881;SDS011;57063;51.406;-2.402;2022-09-16T19:28:26;1.95;;;0.47;;
48881;SDS011;57063;51.406;-2.402;2022-09-16T19:30:52;1.90;;;0.43;;
48881;SDS011;57063;51.406;-2.402;2022-09-16T19:33:18;2.63;;;0.32;;
48881;SDS011;57063;51.406;-2.402;2022-09-16T19:35:44;1.65;;;0.52;;
48881;SDS011;57063;51.406;-2.402;2022-09-16T19:38:09;0.40;;;0.22;;
48881;SDS011;57063;51.406;-2.402;2022-09-16T19:40:35;1.80;;;0.43;;
48881;SDS011;57063;51.406;-2.402;2022-09-16T19:43:00;1.27;;;0.40;;
48881;SDS011;57063;51.406;-2.402;2022-09-16T19:45:25;1.17;;;0.63;;
48881;SDS011;57063;51.406;-2.402;2022-09-16T19:47:51;0.93;;;0.30;;
48881;SDS011;57063;51.406;-2.402;2022-09-16T19:50:16;1.88;;;0.28;;
48881;SDS011;57063;51.406;-2.402;2022-09-16T19:52:42;0.45;;;0.28;;
48881;SDS011;57063;51.406;-2.402;2022-09-16T19:55:07;1.15;;;0.50;;
48881;SDS011;57063;51.406;-2.402;2022-09-16T19:57:33;0.40;;;0.20;;
48881;SDS011;57063;51.406;-2.402;2022-09-16T20:00:00;0.70;;;0.40;;
48881;SDS011;57063;51.406;-2.402;2022-09-16T20:02:26;1.08;;;0.45;;
48881;SDS011;57063;51.406;-2.402;2022-09-16T20:04:52;1.17;;;0.40;;
48881;SDS011;57063;51.406;-2.402;2022-09-16T20:07:18;1.02;;;0.50;;
48881;SDS011;57063;51.406;-2.402;2022-09-16T20:09:44;0.98;;;0.38;;
48881;SDS011;57063;51.406;-2.402;2022-09-16T20:12:11;2.83;;;0.30;;
48881;SDS011;57063;51.406;-2.402;2022-09-16T20:14:37;1.67;;;0.40;;
48881;SDS011;57063;51.406;-2.402;2022-09-16T20:17:03;0.85;;;0.32;;
48881;SDS011;57063;51.406;-2.402;2022-09-16T20:19:29;2.33;;;0.43;;
48881;SDS011;57063;51.406;-2.402;2022-09-16T20:21:55;2.63;;;0.80;;
48881;SDS011;57063;51.406;-2.402;2022-09-16T20:24:21;1.77;;;0.40;;
48881;SDS011;57063;51.406;-2.402;2022-09-16T20:26:48;1.10;;;0.38;;
48881;SDS011;57063;51.406;-2.402;2022-09-16T20:29:15;1.20;;;0.63;;
48881;SDS011;57063;51.406;-2.402;2022-09-16T20:31:42;1.00;;;0.40;;
48881;SDS011;57063;51.406;-2.402;2022-09-16T20:34:09;1.83;;;0.47;;
48881;SDS011;57063;51.406;-2.402;2022-09-16T20:36:36;1.50;;;0.20;;
48881;SDS011;57063;51.406;-2.402;2022-09-16T20:39:02;1.42;;;0.17;;
48881;SDS011;57063;51.406;-2.402;2022-09-16T20:41:29;1.05;;;0.28;;
48881;SDS011;57063;51.406;-2.402;2022-09-16T20:43:56;0.25;;;0.20;;
48881;SDS011;57063;51.406;-2.402;2022-09-16T20:46:28;2.60;;;0.40;;
48881;SDS011;57063;51.406;-2.402;2022-09-16T20:48:59;1.00;;;0.13;;
48881;SDS011;57063;51.406;-2.402;2022-09-16T20:51:27;0.63;;;0.40;;
48881;SDS011;57063;51.406;-2.402;2022-09-16T20:53:59;2.55;;;0.43;;
48881;SDS011;57063;51.406;-2.402;2022-09-16T20:56:27;5.95;;;0.63;;
48881;SDS011;57063;51.406;-2.402;2022-09-16T20:58:52;0.82;;;0.30;;
48881;SDS011;57063;51.406;-2.402;2022-09-16T21:01:18;0.80;;;0.25;;
48881;SDS011;57063;51.406;-2.402;2022-09-16T21:03:51;1.00;;;0.40;;